Time;durP1;ratioP1;P1;durP2;ratioP2;P2;SDS_P1;SDS_P2;PMS_P1;PMS_P2;Temp;Humidity;BMP_temperature;BMP_pressure;BME280_temperature;BME280_humidity;BME280_pressure;Samples;Min_cycle;Max_cycle;Signal;HPM_P1;HPM_P2
2020/12/31 00:00:43;;;;;;;7.55;4.13;;;3.40;99.90;;;;;;5013502;28;20299;-82
2020/12/31 00:03:09;;;;;;;3.78;3.40;;;3.40;99.90;;;;;;5008369;28;20200;-83
2020/12/31 00:05:37;;;;;;;5.20;3.78;;;3.40;99.90;;;;;;5013068;28;20288;-82
2020/12/31 00:08:03;;;;;;;3.83;3.40;;;3.30;99.90;;;;;;5012249;28;20243;-83
2020/12/31 00:10:30;;;;;;;3.70;3.20;;;3.30;99.90;;;;;;5013459;28;20238;-83
2020/12/31 00:12:57;;;;;;;4.53;3.30;;;3.20;99.90;;;;;;5005444;28;20620;-83
2020/12/31 00:15:23;;;;;;;4.50;3.80;;;3.20;99.90;;;;;;5013402;28;20238;-83
2020/12/31 00:17:50;;;;;;;3.72;3.40;;;3.30;99.90;;;;;;5013246;28;20211;-83
2020/12/31 00:20:16;;;;;;;6.00;4.18;;;3.30;99.90;;;;;;5012991;28;20203;-82
2020/12/31 00:22:44;;;;;;;5.25;3.85;;;3.30;99.90;;;;;;5011989;28;20211;-83
2020/12/31 00:25:11;;;;;;;3.90;3.42;;;3.40;99.90;;;;;;5013243;28;20207;-84
2020/12/31 00:27:37;;;;;;;3.85;3.35;;;3.30;99.90;;;;;;5013117;28;20204;-82
2020/12/31 00:30:06;;;;;;;3.97;3.55;;;3.30;99.90;;;;;;5013125;28;20235;-84
2020/12/31 00:32:33;;;;;;;3.63;3.33;;;3.40;99.90;;;;;;5013136;28;20305;-82
2020/12/31 00:34:59;;;;;;;5.18;4.00;;;3.40;99.90;;;;;;5012752;28;20208;-83
2020/12/31 00:37:25;;;;;;;3.78;3.28;;;3.40;99.90;;;;;;5010515;28;20238;-83
2020/12/31 00:39:53;;;;;;;4.35;3.40;;;3.40;99.90;;;;;;5012769;28;20334;-83
2020/12/31 00:42:19;;;;;;;7.20;3.90;;;3.40;99.90;;;;;;5013097;28;20203;-83
2020/12/31 00:44:46;;;;;;;4.07;3.67;;;3.40;99.90;;;;;;5013165;28;20303;-83
2020/12/31 00:47:12;;;;;;;4.90;4.25;;;3.50;99.90;;;;;;5012884;28;20257;-82
2020/12/31 00:49:38;;;;;;;5.72;3.90;;;3.50;99.90;;;;;;5012983;28;20243;-83
2020/12/31 00:52:05;;;;;;;5.40;3.78;;;3.50;99.90;;;;;;5011485;28;20333;-82
2020/12/31 00:54:31;;;;;;;3.78;3.47;;;3.50;99.90;;;;;;5012984;28;20207;-84
2020/12/31 00:56:58;;;;;;;3.97;3.53;;;3.50;99.90;;;;;;5013061;28;20235;-83
2020/12/31 00:59:25;;;;;;;8.35;3.63;;;3.50;99.90;;;;;;5012938;28;20628;-83
2020/12/31 01:01:51;;;;;;;4.20;3.60;;;3.50;99.90;;;;;;5012624;28;20211;-83
2020/12/31 01:04:17;;;;;;;5.65;4.05;;;3.50;99.90;;;;;;5011532;28;20706;-82
2020/12/31 01:06:44;;;;;;;5.68;4.35;;;3.50;99.90;;;;;;5011438;28;20214;-83
2020/12/31 01:09:10;;;;;;;4.97;3.60;;;3.40;99.90;;;;;;5012638;28;20327;-82
2020/12/31 01:11:37;;;;;;;4.47;4.18;;;3.40;99.90;;;;;;5012648;28;20235;-82
2020/12/31 01:14:05;;;;;;;5.40;4.55;;;3.50;99.90;;;;;;5009917;28;20295;-83
2020/12/31 01:16:32;;;;;;;4.70;4.15;;;3.40;99.90;;;;;;5012631;28;20254;-82
2020/12/31 01:18:58;;;;;;;4.70;3.78;;;3.40;99.90;;;;;;5011848;28;20234;-81
2020/12/31 01:21:24;;;;;;;5.80;4.32;;;3.50;99.90;;;;;;5011612;28;20204;-82
2020/12/31 01:23:51;;;;;;;4.85;4.18;;;3.50;99.90;;;;;;5011125;28;20220;-82
2020/12/31 01:26:30;;;;;;;3.85;3.55;;;3.50;99.90;;;;;;5012654;28;20251;-82
2020/12/31 01:28:56;;;;;;;5.10;4.60;;;3.40;99.90;;;;;;5004549;28;20250;-82
2020/12/31 01:31:24;;;;;;;4.95;4.55;;;3.40;99.90;;;;;;5012479;28;20220;-82
2020/12/31 01:33:50;;;;;;;5.75;4.85;;;3.40;99.90;;;;;;5012283;28;20232;-82
2020/12/31 01:36:17;;;;;;;5.10;4.60;;;3.40;99.90;;;;;;5010987;28;20204;-82
2020/12/31 01:38:44;;;;;;;6.75;4.72;;;3.30;99.90;;;;;;5011204;28;20322;-83
2020/12/31 01:41:11;;;;;;;4.57;4.18;;;3.40;99.90;;;;;;5012485;28;20246;-82
2020/12/31 01:43:37;;;;;;;5.63;4.22;;;3.30;99.90;;;;;;5012398;28;20283;-82
2020/12/31 01:46:03;;;;;;;8.10;3.83;;;3.20;99.90;;;;;;5012497;28;20214;-83
2020/12/31 01:48:31;;;;;;;3.90;3.55;;;3.20;99.90;;;;;;5012570;28;20226;-82
2020/12/31 01:50:57;;;;;;;3.95;3.45;;;3.20;99.90;;;;;;5012117;28;20303;-83
2020/12/31 01:53:24;;;;;;;4.32;3.92;;;3.20;99.90;;;;;;5013985;28;20686;-82
2020/12/31 01:55:51;;;;;;;4.47;3.95;;;3.20;99.90;;;;;;5015784;28;20298;-82
2020/12/31 01:58:17;;;;;;;4.97;4.22;;;3.20;99.90;;;;;;5015643;28;20245;-82
2020/12/31 02:00:43;;;;;;;4.20;3.70;;;3.10;99.90;;;;;;5015793;28;20227;-82
2020/12/31 02:03:10;;;;;;;3.75;3.42;;;3.00;99.90;;;;;;5015890;28;20242;-82
2020/12/31 02:05:37;;;;;;;6.22;3.45;;;2.90;99.90;;;;;;5014242;28;20208;-82
2020/12/31 02:08:03;;;;;;;5.15;4.03;;;2.80;99.90;;;;;;5014256;28;20322;-83
2020/12/31 02:10:30;;;;;;;4.40;3.72;;;2.80;99.90;;;;;;5015685;28;20269;-82
2020/12/31 02:13:32;;;;;;;4.65;3.63;;;2.70;99.90;;;;;;5015430;28;20326;-84
2020/12/31 02:15:58;;;;;;;4.63;2.95;;;2.70;99.90;;;;;;5017404;28;20209;-83
2020/12/31 02:18:25;;;;;;;3.95;3.60;;;2.60;99.90;;;;;;5015363;28;20318;-83
2020/12/31 02:20:52;;;;;;;4.15;3.70;;;2.60;99.90;;;;;;5014051;28;20211;-82
2020/12/31 02:23:21;;;;;;;4.95;3.35;;;2.50;99.90;;;;;;5013857;28;20207;-82
2020/12/31 02:25:47;;;;;;;4.22;3.22;;;2.50;99.90;;;;;;5015073;28;20207;-82
2020/12/31 02:28:13;;;;;;;5.50;3.72;;;2.40;99.90;;;;;;5015344;28;20656;-82
2020/12/31 02:30:40;;;;;;;5.60;2.63;;;2.40;99.90;;;;;;5015382;28;20310;-82
2020/12/31 02:33:06;;;;;;;6.20;3.47;;;2.40;99.90;;;;;;5014386;28;21048;-81
2020/12/31 02:35:32;;;;;;;5.30;3.42;;;2.30;99.90;;;;;;5011003;28;20204;-82
2020/12/31 02:37:58;;;;;;;6.80;3.25;;;2.30;99.90;;;;;;5013517;28;20298;-83
2020/12/31 02:40:26;;;;;;;3.05;2.70;;;2.30;99.90;;;;;;5015200;28;20242;-83
2020/12/31 02:42:52;;;;;;;3.45;2.92;;;2.20;99.90;;;;;;5014945;28;20667;-82
2020/12/31 02:45:19;;;;;;;6.90;3.83;;;2.20;99.90;;;;;;5014975;28;20200;-81
2020/12/31 02:47:45;;;;;;;3.42;2.75;;;2.20;99.90;;;;;;5014771;28;20729;-83
2020/12/31 02:50:11;;;;;;;4.43;3.40;;;2.10;99.90;;;;;;5014514;28;20341;-82
2020/12/31 02:52:38;;;;;;;6.35;4.28;;;2.10;99.90;;;;;;5013402;28;20734;-83
2020/12/31 02:55:04;;;;;;;5.03;3.10;;;2.20;99.90;;;;;;5014888;28;20254;-83
2020/12/31 02:57:32;;;;;;;4.25;3.70;;;2.20;99.90;;;;;;5014495;28;20721;-83
2020/12/31 02:59:58;;;;;;;5.63;3.35;;;2.20;99.90;;;;;;5014629;28;20235;-83
2020/12/31 03:02:25;;;;;;;3.95;2.67;;;2.20;99.90;;;;;;5014597;28;20243;-83
2020/12/31 03:04:51;;;;;;;5.68;4.18;;;2.20;99.90;;;;;;5012011;28;20211;-82
2020/12/31 03:07:18;;;;;;;4.10;3.00;;;2.20;99.90;;;;;;5013233;28;20200;-83
2020/12/31 03:09:46;;;;;;;4.10;3.42;;;2.10;99.90;;;;;;5014210;28;20326;-83
2020/12/31 03:12:13;;;;;;;3.58;2.70;;;2.20;99.90;;;;;;5014431;28;20231;-83
2020/12/31 03:14:40;;;;;;;4.03;3.08;;;2.10;99.90;;;;;;5014254;28;20675;-83
2020/12/31 03:17:06;;;;;;;4.10;3.50;;;2.10;99.90;;;;;;5014314;28;20817;-83
2020/12/31 03:19:33;;;;;;;4.28;3.08;;;2.10;99.90;;;;;;5013903;28;20238;-83
2020/12/31 03:21:59;;;;;;;6.85;3.90;;;2.10;99.90;;;;;;5012805;28;20279;-83
2020/12/31 03:24:25;;;;;;;4.63;2.75;;;2.10;99.90;;;;;;5014210;28;20200;-84
2020/12/31 03:26:52;;;;;;;6.53;4.20;;;2.10;99.90;;;;;;5014094;28;20203;-83
2020/12/31 03:29:18;;;;;;;4.47;3.40;;;2.20;99.90;;;;;;5014108;28;20231;-84
2020/12/31 03:31:46;;;;;;;4.60;3.20;;;2.20;99.90;;;;;;5014160;28;20208;-83
2020/12/31 03:34:12;;;;;;;4.53;3.72;;;2.30;99.90;;;;;;5012505;28;20242;-83
2020/12/31 03:36:38;;;;;;;5.55;4.25;;;2.30;99.90;;;;;;5012697;28;20578;-83
2020/12/31 03:39:05;;;;;;;5.35;3.95;;;2.30;99.90;;;;;;5013717;28;20268;-83
2020/12/31 03:41:31;;;;;;;4.00;3.00;;;2.20;99.90;;;;;;5013936;28;20231;-82
2020/12/31 03:43:58;;;;;;;4.60;3.17;;;2.10;99.90;;;;;;5013837;28;20268;-83
2020/12/31 03:46:24;;;;;;;5.40;3.30;;;2.10;99.90;;;;;;5013684;28;20239;-82
2020/12/31 03:48:51;;;;;;;3.10;2.83;;;2.00;99.90;;;;;;5013392;28;20235;-82
2020/12/31 03:51:18;;;;;;;6.47;3.97;;;1.90;99.90;;;;;;5013733;28;20213;-82
2020/12/31 03:53:44;;;;;;;3.85;3.20;;;1.80;99.90;;;;;;5012485;28;20277;-82
2020/12/31 03:56:10;;;;;;;4.25;2.33;;;1.70;99.90;;;;;;5013469;28;20199;-82
2020/12/31 03:58:37;;;;;;;3.78;3.00;;;1.80;99.90;;;;;;5013498;28;20227;-82
2020/12/31 04:01:03;;;;;;;7.25;3.33;;;1.80;99.90;;;;;;5013463;28;20226;-82
2020/12/31 04:03:30;;;;;;;5.35;2.95;;;1.80;99.90;;;;;;5011902;28;20294;-82
2020/12/31 04:05:57;;;;;;;3.72;3.33;;;1.80;99.90;;;;;;5013630;28;20231;-82
2020/12/31 04:08:23;;;;;;;6.25;2.78;;;1.70;99.90;;;;;;5012049;28;20246;-82
2020/12/31 04:10:50;;;;;;;3.65;2.90;;;1.70;99.90;;;;;;5013545;28;20566;-82
2020/12/31 04:13:16;;;;;;;3.92;3.17;;;1.70;99.90;;;;;;5013400;28;20203;-82
2020/12/31 04:15:42;;;;;;;4.00;2.85;;;1.70;99.90;;;;;;5013033;28;20207;-83
2020/12/31 04:18:09;;;;;;;3.45;2.33;;;1.60;99.90;;;;;;5012860;28;20203;-82
2020/12/31 04:20:35;;;;;;;3.85;2.47;;;1.60;99.90;;;;;;5013479;28;20227;-83
2020/12/31 04:23:03;;;;;;;3.45;2.80;;;1.60;99.90;;;;;;5012077;28;20242;-83
2020/12/31 04:25:29;;;;;;;3.28;2.97;;;1.50;99.90;;;;;;5013463;28;20238;-83
2020/12/31 04:27:56;;;;;;;4.07;2.80;;;1.50;99.90;;;;;;5013281;28;20230;-82
2020/12/31 04:30:23;;;;;;;4.60;3.30;;;1.50;99.90;;;;;;5013107;28;20269;-82
2020/12/31 04:32:50;;;;;;;5.05;3.10;;;1.50;99.90;;;;;;5012937;28;20266;-83
2020/12/31 04:35:16;;;;;;;5.97;4.10;;;1.40;99.90;;;;;;5011505;28;20242;-83
2020/12/31 04:37:42;;;;;;;6.05;3.38;;;1.40;99.90;;;;;;5011994;28;20724;-83
2020/12/31 04:40:10;;;;;;;4.60;3.85;;;1.30;99.90;;;;;;5013047;28;20235;-82
2020/12/31 04:42:37;;;;;;;4.97;4.50;;;1.40;99.90;;;;;;5013025;28;20204;-82
2020/12/31 04:45:04;;;;;;;7.88;5.15;;;1.30;99.90;;;;;;5012822;28;20210;-82
2020/12/31 04:47:44;;;;;;;3.65;3.28;;;1.30;99.90;;;;;;5013039;28;20235;-82
2020/12/31 04:50:12;;;;;;;3.83;3.40;;;1.30;99.90;;;;;;5012684;28;20215;-82
2020/12/31 04:52:39;;;;;;;3.47;2.85;;;1.10;99.90;;;;;;5011979;28;20253;-83
2020/12/31 04:55:06;;;;;;;4.75;3.90;;;1.10;99.90;;;;;;5013069;28;20230;-82
2020/12/31 04:57:33;;;;;;;3.88;2.65;;;1.10;99.90;;;;;;5012820;28;20207;-82
2020/12/31 05:00:00;;;;;;;3.55;2.80;;;1.00;99.90;;;;;;5012813;28;20263;-82
2020/12/31 05:02:26;;;;;;;3.83;2.97;;;0.90;99.90;;;;;;5012891;28;20282;-83
2020/12/31 05:04:53;;;;;;;3.35;3.00;;;0.80;99.90;;;;;;5008067;28;20207;-82
2020/12/31 05:07:21;;;;;;;3.97;2.60;;;0.80;99.90;;;;;;5011855;28;20598;-82
2020/12/31 05:10:07;;;;;;;4.85;3.05;;;0.80;99.90;;;;;;5012653;28;20242;-83
2020/12/31 05:12:34;;;;;;;4.97;3.35;;;0.80;99.90;;;;;;5012546;28;20290;-82
2020/12/31 05:15:01;;;;;;;4.00;2.70;;;0.70;99.90;;;;;;5012705;28;20230;-82
2020/12/31 05:17:30;;;;;;;4.00;2.75;;;0.70;99.90;;;;;;5012858;28;20204;-81
2020/12/31 05:19:56;;;;;;;2.95;2.65;;;0.70;99.90;;;;;;5012381;28;20293;-82
2020/12/31 05:22:23;;;;;;;4.72;3.50;;;0.70;99.90;;;;;;5009954;28;20231;-83
2020/12/31 05:24:51;;;;;;;4.47;3.45;;;0.70;99.90;;;;;;5012998;28;20648;-82
2020/12/31 05:27:23;;;;;;;5.00;3.63;;;0.70;99.90;;;;;;5014105;28;20733;-82
2020/12/31 05:30:02;;;;;;;4.85;3.35;;;0.70;99.90;;;;;;5016584;28;20219;-83
2020/12/31 05:32:31;;;;;;;3.65;2.40;;;0.70;99.90;;;;;;5016525;28;20203;-83
2020/12/31 05:34:59;;;;;;;4.90;2.85;;;0.70;99.90;;;;;;5015446;28;20216;-82
2020/12/31 05:37:30;;;;;;;5.00;3.25;;;0.80;99.90;;;;;;5014901;28;20242;-82
2020/12/31 05:40:04;;;;;;;5.22;3.05;;;0.80;99.90;;;;;;5016505;28;20232;-82
2020/12/31 05:42:33;;;;;;;4.88;3.13;;;0.80;99.90;;;;;;5016389;28;20293;-83
2020/12/31 05:45:11;;;;;;;7.45;3.75;;;0.80;99.90;;;;;;4982046;28;20242;-83
2020/12/31 05:47:44;;;;;;;4.68;3.90;;;0.80;99.90;;;;;;5016153;28;20200;-83
2020/12/31 05:50:22;;;;;;;4.03;2.72;;;0.80;99.90;;;;;;5016033;28;20576;-83
2020/12/31 05:52:49;;;;;;;2.83;2.55;;;0.80;99.90;;;;;;5014799;28;20210;-83
2020/12/31 05:55:17;;;;;;;4.18;2.85;;;0.80;99.90;;;;;;5014911;28;20212;-83
2020/12/31 05:57:48;;;;;;;3.92;2.72;;;0.80;99.90;;;;;;5015864;28;20299;-82
2020/12/31 06:00:18;;;;;;;4.63;2.92;;;0.80;99.90;;;;;;5015870;28;20326;-84
2020/12/31 06:02:50;;;;;;;3.70;2.70;;;0.70;99.90;;;;;;5015964;28;20204;-82
2020/12/31 06:05:18;;;;;;;5.80;3.33;;;0.80;99.90;;;;;;5014539;28;20283;-82
2020/12/31 06:07:47;;;;;;;3.03;2.75;;;0.70;99.90;;;;;;5014548;28;20207;-82
2020/12/31 06:10:19;;;;;;;6.13;2.88;;;0.70;99.90;;;;;;5015757;28;20215;-82
2020/12/31 06:13:04;;;;;;;3.80;2.78;;;0.70;99.90;;;;;;5015701;28;20208;-82
2020/12/31 06:15:33;;;;;;;2.97;2.58;;;0.70;99.90;;;;;;5015814;28;20678;-82
2020/12/31 06:18:01;;;;;;;4.15;2.92;;;0.80;99.90;;;;;;5015805;28;20246;-82
2020/12/31 06:20:29;;;;;;;5.05;4.10;;;0.90;99.90;;;;;;5015226;28;20231;-82
2020/12/31 06:23:01;;;;;;;4.63;3.13;;;0.80;99.90;;;;;;5006384;28;20203;-82
2020/12/31 06:25:46;;;;;;;4.57;3.38;;;0.90;99.90;;;;;;5015500;28;20210;-82
2020/12/31 06:28:15;;;;;;;2.83;2.40;;;0.90;99.90;;;;;;5015795;28;20242;-82
2020/12/31 06:30:47;;;;;;;3.90;2.53;;;0.90;99.90;;;;;;5015415;28;20210;-82
2020/12/31 06:33:24;;;;;;;4.90;3.08;;;0.90;99.90;;;;;;5014316;28;20570;-82
2020/12/31 06:35:57;;;;;;;2.83;2.47;;;0.90;99.90;;;;;;5014881;28;20711;-82
2020/12/31 06:38:32;;;;;;;4.32;3.33;;;1.00;99.90;;;;;;5013892;28;20271;-82
2020/12/31 06:40:59;;;;;;;3.78;3.05;;;1.00;99.90;;;;;;5015398;28;20302;-82
2020/12/31 06:43:31;;;;;;;3.75;2.40;;;1.00;99.90;;;;;;5015187;28;20207;-83
2020/12/31 06:46:01;;;;;;;4.38;2.80;;;0.90;99.90;;;;;;5015302;28;20286;-82
2020/12/31 06:48:39;;;;;;;5.07;3.95;;;0.90;99.90;;;;;;5015017;28;20270;-82
2020/12/31 06:51:09;;;;;;;4.00;2.80;;;0.90;99.90;;;;;;5015027;28;20672;-82
2020/12/31 06:53:38;;;;;;;6.20;4.20;;;0.80;99.90;;;;;;5013889;28;20246;-83
2020/12/31 06:56:06;;;;;;;7.10;4.03;;;0.80;99.90;;;;;;5014966;28;20231;-82
2020/12/31 06:58:33;;;;;;;6.00;3.58;;;0.80;99.90;;;;;;5014799;28;20210;-82
2020/12/31 07:01:02;;;;;;;3.33;3.03;;;0.80;99.90;;;;;;5014760;28;20609;-82
2020/12/31 07:03:47;;;;;;;4.28;3.50;;;0.80;99.90;;;;;;5014802;28;20208;-82
2020/12/31 07:06:33;;;;;;;5.13;3.50;;;0.80;99.90;;;;;;4975711;28;20212;-82
2020/12/31 07:09:05;;;;;;;8.10;3.70;;;0.90;99.90;;;;;;4975521;28;20240;-83
2020/12/31 07:11:36;;;;;;;9.65;6.65;;;0.90;99.90;;;;;;4975598;28;20216;-82
2020/12/31 07:14:23;;;;;;;7.20;4.03;;;1.00;99.90;;;;;;4975494;28;20736;-82
2020/12/31 07:16:58;;;;;;;6.05;4.05;;;1.00;99.90;;;;;;4975406;28;20295;-81
2020/12/31 07:19:36;;;;;;;7.25;4.15;;;1.00;99.90;;;;;;4970432;28;20250;-82
2020/12/31 07:22:07;;;;;;;6.25;3.92;;;1.10;99.90;;;;;;4973784;28;20201;-83
2020/12/31 07:24:45;;;;;;;5.03;4.10;;;1.10;99.90;;;;;;5010680;28;20262;-83
2020/12/31 07:27:19;;;;;;;6.55;4.10;;;1.10;99.90;;;;;;5014476;28;20242;-83
2020/12/31 07:29:56;;;;;;;10.27;5.63;;;1.10;99.90;;;;;;5014181;28;20203;-83
2020/12/31 07:32:51;;;;;;;4.68;3.97;;;1.10;99.90;;;;;;5014093;28;20414;-82
2020/12/31 07:35:26;;;;;;;5.93;4.22;;;1.20;99.90;;;;;;5012775;28;20219;-82
2020/12/31 07:37:56;;;;;;;4.65;3.75;;;1.20;99.90;;;;;;5012972;28;20293;-82
2020/12/31 07:40:40;;;;;;;11.82;4.00;;;1.30;99.90;;;;;;5013923;28;20239;-83
2020/12/31 07:43:08;;;;;;;7.47;3.97;;;1.40;99.90;;;;;;5014011;28;20207;-83
2020/12/31 07:45:35;;;;;;;4.07;3.28;;;1.40;99.90;;;;;;5014108;28;20624;-83
2020/12/31 07:48:03;;;;;;;6.30;4.00;;;1.50;99.90;;;;;;5013744;28;20215;-82
2020/12/31 07:50:30;;;;;;;6.80;4.00;;;1.50;99.90;;;;;;5012937;28;20373;-83
2020/12/31 07:52:58;;;;;;;7.38;4.40;;;1.60;99.90;;;;;;5012452;28;20207;-82
2020/12/31 07:55:25;;;;;;;6.43;4.85;;;1.60;99.90;;;;;;5013676;28;20210;-82
2020/12/31 07:57:52;;;;;;;5.78;3.97;;;1.70;99.90;;;;;;5013651;28;20291;-83
2020/12/31 08:00:22;;;;;;;7.55;4.78;;;1.80;99.90;;;;;;5013373;28;20262;-82
2020/12/31 08:02:51;;;;;;;6.15;3.75;;;1.90;99.90;;;;;;5013727;28;20215;-82
2020/12/31 08:05:20;;;;;;;5.72;3.67;;;2.00;99.90;;;;;;5011824;28;20734;-84
2020/12/31 08:07:51;;;;;;;5.53;4.10;;;2.10;99.90;;;;;;5011998;28;20625;-83
2020/12/31 08:10:17;;;;;;;5.95;3.90;;;2.20;99.90;;;;;;5013506;28;20282;-83
2020/12/31 08:12:53;;;;;;;8.00;4.80;;;2.20;99.90;;;;;;5013374;28;20218;-82
2020/12/31 08:15:21;;;;;;;7.13;3.70;;;2.30;99.90;;;;;;5013421;28;20732;-81
2020/12/31 08:17:52;;;;;;;6.43;4.47;;;2.30;99.90;;;;;;5013364;28;20235;-84
2020/12/31 08:20:24;;;;;;;7.65;4.55;;;2.40;99.90;;;;;;5012649;28;20642;-84
2020/12/31 08:22:53;;;;;;;6.75;4.25;;;2.50;99.90;;;;;;5011256;28;20203;-82
2020/12/31 08:25:25;;;;;;;6.30;4.90;;;2.50;99.90;;;;;;4973940;28;20630;-85
2020/12/31 08:27:54;;;;;;;6.60;5.10;;;2.60;99.90;;;;;;4974372;28;20201;-83
2020/12/31 08:30:21;;;;;;;5.40;4.70;;;2.60;99.90;;;;;;4974194;28;20284;-83
2020/12/31 08:32:58;;;;;;;6.20;3.80;;;2.60;99.90;;;;;;4974055;28;20586;-77
2020/12/31 08:35:27;;;;;;;5.55;3.90;;;2.90;99.90;;;;;;4999190;28;20207;-82
2020/12/31 08:38:08;;;;;;;5.05;4.60;;;3.10;99.90;;;;;;5011439;28;20246;-82
2020/12/31 08:40:41;;;;;;;4.60;3.95;;;3.20;99.90;;;;;;5014195;28;20230;-82
2020/12/31 08:43:09;;;;;;;5.93;3.92;;;3.00;99.90;;;;;;5012693;28;20208;-82
2020/12/31 08:45:35;;;;;;;4.35;3.83;;;2.90;99.90;;;;;;5012898;28;20211;-82
2020/12/31 08:48:21;;;;;;;8.57;4.95;;;2.90;99.90;;;;;;5012822;28;20211;-82
2020/12/31 08:51:03;;;;;;;4.20;3.67;;;2.80;99.90;;;;;;5012419;28;20230;-82
2020/12/31 08:53:29;;;;;;;6.25;4.55;;;2.80;99.90;;;;;;5011444;28;20306;-83
2020/12/31 08:55:56;;;;;;;6.13;4.07;;;2.80;99.90;;;;;;5012788;28;20238;-83
2020/12/31 08:58:28;;;;;;;7.50;4.18;;;2.90;99.90;;;;;;5012844;28;20199;-82
2020/12/31 09:00:54;;;;;;;7.05;5.22;;;2.90;99.90;;;;;;5013556;28;20657;-82
2020/12/31 09:03:21;;;;;;;9.10;5.00;;;3.00;99.90;;;;;;5017016;28;20208;-83
2020/12/31 09:05:55;;;;;;;4.47;3.90;;;3.10;99.90;;;;;;5015324;28;20258;-85
2020/12/31 09:08:22;;;;;;;5.57;4.90;;;3.10;99.90;;;;;;5015248;28;20314;-84
2020/12/31 09:10:48;;;;;;;6.05;4.68;;;3.30;99.90;;;;;;5016953;28;20324;-85
2020/12/31 09:13:19;;;;;;;4.43;3.90;;;3.30;99.90;;;;;;5016738;28;20671;-84
2020/12/31 09:15:45;;;;;;;6.65;4.40;;;3.30;99.90;;;;;;5016937;28;20269;-85
2020/12/31 09:18:18;;;;;;;5.35;4.00;;;3.40;99.90;;;;;;5016537;28;20294;-84
2020/12/31 09:20:44;;;;;;;8.05;5.13;;;3.30;99.90;;;;;;5016077;28;20227;-84
2020/12/31 09:23:12;;;;;;;5.47;4.75;;;3.50;99.90;;;;;;5015398;28;20291;-84
2020/12/31 09:25:49;;;;;;;4.65;4.25;;;3.50;99.90;;;;;;4996467;28;20220;-84
2020/12/31 09:28:16;;;;;;;7.68;5.07;;;3.50;99.90;;;;;;4996646;28;20283;-83
2020/12/31 09:30:44;;;;;;;6.97;5.30;;;3.50;99.90;;;;;;4996675;28;20208;-83
2020/12/31 09:33:15;;;;;;;5.43;4.47;;;3.50;99.90;;;;;;4996521;28;20232;-82
2020/12/31 09:35:41;;;;;;;7.00;5.40;;;3.60;99.90;;;;;;5007122;28;20213;-84
2020/12/31 09:38:08;;;;;;;7.30;4.88;;;3.50;99.90;;;;;;5014824;28;20569;-82
2020/12/31 09:40:34;;;;;;;7.78;6.18;;;3.60;99.90;;;;;;5015842;28;20269;-83
2020/12/31 09:43:01;;;;;;;7.45;5.40;;;3.80;99.90;;;;;;5015956;28;20204;-84
2020/12/31 09:45:29;;;;;;;8.52;5.70;;;3.80;99.90;;;;;;5016044;28;20230;-84
2020/12/31 09:47:56;;;;;;;9.38;6.38;;;3.80;99.90;;;;;;5015828;28;20291;-83
2020/12/31 09:50:23;;;;;;;8.35;5.85;;;3.80;99.90;;;;;;5015694;28;20215;-82
2020/12/31 09:52:49;;;;;;;7.43;5.88;;;3.90;99.90;;;;;;5014743;28;20219;-82
2020/12/31 09:55:16;;;;;;;7.25;5.82;;;4.00;99.90;;;;;;5016062;28;20211;-81
2020/12/31 09:57:42;;;;;;;7.45;5.28;;;4.10;99.90;;;;;;5015389;28;20291;-81
2020/12/31 10:00:10;;;;;;;9.63;6.13;;;4.10;99.90;;;;;;5015316;28;20238;-83
2020/12/31 10:02:36;;;;;;;10.82;7.40;;;4.20;99.90;;;;;;5015644;28;20211;-83
2020/12/31 10:05:03;;;;;;;10.23;6.75;;;4.30;99.90;;;;;;5014648;28;20208;-82
2020/12/31 10:07:29;;;;;;;8.20;6.20;;;4.50;99.90;;;;;;5014018;28;20213;-82
2020/12/31 10:09:56;;;;;;;10.02;6.40;;;4.50;99.90;;;;;;5015335;28;20751;-83
2020/12/31 10:12:22;;;;;;;5.85;4.85;;;4.60;99.90;;;;;;5015058;28;20306;-83
2020/12/31 10:14:49;;;;;;;6.85;5.07;;;4.70;99.90;;;;;;5015304;28;20294;-82
2020/12/31 10:17:16;;;;;;;9.80;7.57;;;4.70;99.90;;;;;;5015350;28;20204;-83
2020/12/31 10:19:43;;;;;;;7.95;7.05;;;4.60;99.90;;;;;;5015450;28;20242;-84
2020/12/31 10:22:09;;;;;;;8.25;5.75;;;4.50;99.90;;;;;;5014051;28;20299;-81
2020/12/31 10:24:36;;;;;;;7.75;6.00;;;4.50;99.90;;;;;;5013834;28;20942;-83
2020/12/31 10:27:02;;;;;;;6.65;5.32;;;4.60;99.90;;;;;;5015305;28;20294;-83
2020/12/31 10:29:28;;;;;;;6.78;5.35;;;4.40;99.90;;;;;;5015026;28;20670;-82
2020/12/31 10:31:56;;;;;;;7.38;6.63;;;4.40;99.90;;;;;;5015161;28;20211;-83
2020/12/31 10:34:24;;;;;;;6.30;5.70;;;4.50;99.90;;;;;;5013800;28;20215;-82
2020/12/31 10:36:52;;;;;;;6.68;5.82;;;4.50;99.90;;;;;;5013924;28;20207;-82
2020/12/31 10:39:19;;;;;;;7.38;6.10;;;4.60;99.90;;;;;;5014766;28;20327;-84
2020/12/31 10:41:46;;;;;;;7.15;5.68;;;4.70;99.90;;;;;;5014990;28;20290;-85
2020/12/31 10:44:13;;;;;;;6.28;5.78;;;4.80;99.90;;;;;;5014846;28;20207;-83
2020/12/31 10:46:39;;;;;;;7.63;5.63;;;5.00;99.90;;;;;;5014815;28;20262;-84
2020/12/31 10:49:06;;;;;;;6.57;5.97;;;5.20;99.90;;;;;;5014696;28;20291;-83
2020/12/31 10:51:39;;;;;;;7.95;5.93;;;5.20;99.90;;;;;;5014747;28;20243;-84
2020/12/31 10:54:06;;;;;;;8.30;5.68;;;5.20;99.90;;;;;;5014369;28;20663;-90
2020/12/31 10:56:32;;;;;;;4.85;4.45;;;5.10;99.90;;;;;;5014853;28;20211;-80
2020/12/31 10:58:59;;;;;;;5.43;4.93;;;5.50;99.90;;;;;;5014978;28;20295;-82
2020/12/31 11:01:25;;;;;;;6.25;5.20;;;5.50;99.90;;;;;;5014457;28;20199;-82
2020/12/31 11:03:52;;;;;;;4.75;3.80;;;5.60;99.90;;;;;;5014570;28;20207;-81
2020/12/31 11:09:41;;;;;;;7.88;5.45;;;5.40;99.90;;;;;;5013756;28;20293;-82
2020/12/31 11:12:07;;;;;;;7.70;5.03;;;5.40;99.90;;;;;;5014432;28;20203;-81
2020/12/31 11:14:34;;;;;;;6.38;4.38;;;5.50;99.90;;;;;;5014322;28;20290;-79
2020/12/31 11:17:00;;;;;;;6.88;5.88;;;5.40;99.90;;;;;;5014654;28;20207;-80
2020/12/31 11:19:26;;;;;;;8.52;6.43;;;5.40;99.90;;;;;;5013882;28;20228;-81
2020/12/31 11:21:53;;;;;;;5.55;5.05;;;5.20;99.90;;;;;;5012897;28;20208;-81
2020/12/31 11:24:19;;;;;;;7.43;6.50;;;5.10;99.90;;;;;;5011936;28;20207;-82
2020/12/31 11:26:49;;;;;;;10.00;7.75;;;4.90;99.90;;;;;;5013936;28;20203;-80
2020/12/31 11:29:16;;;;;;;9.13;6.47;;;5.00;99.90;;;;;;5013976;28;20656;-80
2020/12/31 11:31:42;;;;;;;11.93;10.73;;;4.80;99.90;;;;;;5014284;28;20203;-80
2020/12/31 11:34:08;;;;;;;8.32;7.45;;;4.70;99.90;;;;;;5012716;28;20239;-80
2020/12/31 11:36:35;;;;;;;9.68;6.30;;;4.60;99.90;;;;;;5013685;28;20203;-80
2020/12/31 11:39:03;;;;;;;8.20;6.28;;;4.60;99.90;;;;;;5013274;28;20294;-81
2020/12/31 11:41:29;;;;;;;7.93;5.93;;;4.60;99.90;;;;;;5014179;28;20254;-80
2020/12/31 11:43:57;;;;;;;12.05;7.40;;;4.60;99.90;;;;;;5014501;28;20208;-80
2020/12/31 11:46:31;;;;;;;17.95;10.68;;;4.60;99.90;;;;;;5171528;27;20553;-83
2020/12/31 11:48:58;;;;;;;9.35;8.25;;;4.70;99.90;;;;;;5167296;27;20349;-82
2020/12/31 11:51:24;;;;;;;12.70;7.47;;;4.80;99.90;;;;;;5170440;27;20674;-83
2020/12/31 11:53:50;;;;;;;7.45;5.03;;;4.70;99.90;;;;;;5169107;27;20238;-82
2020/12/31 11:56:17;;;;;;;5.55;4.53;;;4.80;99.90;;;;;;5170325;27;20294;-82
2020/12/31 11:58:43;;;;;;;6.70;5.10;;;4.90;99.90;;;;;;5170898;27;20301;-82
2020/12/31 12:01:09;;;;;;;6.00;4.28;;;4.90;99.90;;;;;;5170086;27;20206;-83
2020/12/31 12:03:37;;;;;;;9.07;6.30;;;5.00;99.90;;;;;;5161576;27;20621;-81
2020/12/31 12:06:03;;;;;;;6.85;4.45;;;5.10;99.90;;;;;;5068696;28;20229;-82
2020/12/31 12:08:30;;;;;;;4.63;4.22;;;5.30;99.90;;;;;;5068633;28;20284;-82
2020/12/31 12:10:57;;;;;;;4.78;3.80;;;5.20;99.90;;;;;;5069744;28;20210;-81
2020/12/31 12:13:23;;;;;;;4.85;4.40;;;5.10;99.90;;;;;;5069505;28;20202;-82
2020/12/31 12:15:50;;;;;;;4.63;3.47;;;5.10;99.90;;;;;;5069523;28;20236;-83
2020/12/31 12:18:16;;;;;;;7.38;5.22;;;5.10;99.90;;;;;;5069587;28;20692;-82
2020/12/31 12:20:44;;;;;;;12.55;10.45;;;5.10;99.90;;;;;;5069215;28;20285;-81
2020/12/31 12:23:10;;;;;;;9.85;5.80;;;5.20;99.90;;;;;;5068295;28;20198;-81
2020/12/31 12:25:37;;;;;;;7.22;4.90;;;5.20;99.90;;;;;;5070354;28;20244;-81
2020/12/31 12:28:03;;;;;;;7.25;4.30;;;5.20;99.90;;;;;;5070486;28;20212;-81
2020/12/31 12:30:29;;;;;;;10.50;8.30;;;5.20;99.90;;;;;;5069164;28;20212;-82
2020/12/31 12:32:56;;;;;;;16.10;9.65;;;5.20;99.90;;;;;;5069901;28;20289;-82
2020/12/31 12:35:22;;;;;;;6.03;5.43;;;5.40;99.90;;;;;;5068888;28;20256;-82
2020/12/31 12:37:49;;;;;;;11.73;7.03;;;5.40;99.90;;;;;;5067668;28;20706;-82
2020/12/31 12:40:17;;;;;;;5.20;4.70;;;5.40;99.90;;;;;;5069216;28;20247;-83
2020/12/31 12:42:43;;;;;;;8.38;4.15;;;5.30;99.90;;;;;;5069123;28;20224;-82
2020/12/31 12:45:13;;;;;;;6.85;4.15;;;5.30;99.90;;;;;;5069295;28;20245;-81
2020/12/31 12:47:40;;;;;;;6.15;4.60;;;5.30;99.90;;;;;;5068937;28;20209;-82
2020/12/31 12:50:08;;;;;;;5.53;4.53;;;5.30;99.90;;;;;;5069012;28;20214;-82
2020/12/31 12:52:36;;;;;;;5.40;4.18;;;5.30;99.90;;;;;;5067249;28;20198;-82
2020/12/31 12:55:04;;;;;;;8.93;6.45;;;5.30;99.90;;;;;;5067260;28;20296;-82
2020/12/31 12:57:34;;;;;;;11.45;4.82;;;5.30;99.90;;;;;;5057663;28;20584;-83
2020/12/31 13:00:00;;;;;;;41.97;29.13;;;5.40;99.90;;;;;;5055478;28;20674;-81
2020/12/31 13:02:27;;;;;;;7.35;5.65;;;5.40;99.90;;;;;;5055534;28;20238;-81
2020/12/31 13:04:53;;;;;;;5.03;3.40;;;5.30;99.90;;;;;;5055838;28;20647;-81